createdAt,value
2023-02-07T00:01:44.761Z,48.67
2023-02-07T00:04:13.658Z,55.07
2023-02-07T00:06:42.486Z,56.00
2023-02-07T00:09:13.431Z,57.63
2023-02-07T00:11:43.670Z,62.40
2023-02-07T00:14:13.649Z,59.80
2023-02-07T00:16:43.211Z,62.63
2023-02-07T00:19:12.177Z,64.10
2023-02-07T00:21:40.976Z,66.17
2023-02-07T00:24:09.892Z,62.40
2023-02-07T00:26:38.697Z,66.53
2023-02-07T00:29:08.999Z,75.53
2023-02-07T00:31:38.030Z,91.60
2023-02-07T00:34:09.057Z,74.93
2023-02-07T00:36:39.287Z,69.40
2023-02-07T00:39:10.244Z,66.00
2023-02-07T00:41:39.417Z,64.10
2023-02-07T00:44:10.261Z,64.13
2023-02-07T00:46:39.516Z,67.37
2023-02-07T00:49:08.392Z,64.30
2023-02-07T00:51:37.409Z,66.07
2023-02-07T00:54:06.487Z,61.93
2023-02-07T00:56:35.359Z,64.23
2023-02-07T00:59:04.287Z,61.20
2023-02-07T01:01:34.505Z,62.03
2023-02-07T01:04:03.328Z,62.40
2023-02-07T01:06:33.897Z,61.30
2023-02-07T01:09:04.621Z,57.93
2023-02-07T01:11:33.758Z,58.70
2023-02-07T01:14:03.518Z,58.60
2023-02-07T01:16:36.126Z,56.40
2023-02-07T01:19:11.770Z,57.87
2023-02-07T01:21:40.718Z,55.97
2023-02-07T01:24:10.395Z,58.97
2023-02-07T01:26:40.283Z,59.43
2023-02-07T01:29:09.786Z,57.50
2023-02-07T01:31:42.028Z,56.70
2023-02-07T01:34:14.193Z,57.53
2023-02-07T01:36:43.008Z,60.40
2023-02-07T01:39:14.318Z,59.13
2023-02-07T01:41:43.071Z,59.77
2023-02-07T01:45:01.466Z,59.93
2023-02-07T01:47:33.061Z,58.23
2023-02-07T01:50:02.310Z,58.30
2023-02-07T01:52:34.746Z,61.13
2023-02-07T01:55:08.221Z,60.27
2023-02-07T01:57:38.674Z,60.77
2023-02-07T02:00:09.690Z,59.23
2023-02-07T02:02:45.387Z,59.90
2023-02-07T02:05:16.418Z,61.20
2023-02-07T02:07:45.311Z,62.13
2023-02-07T02:10:19.339Z,58.13
2023-02-07T02:15:58.976Z,60.13
2023-02-07T02:18:38.797Z,62.67
2023-02-07T02:21:47.544Z,61.30
2023-02-07T02:24:36.237Z,58.23
2023-02-07T02:27:11.227Z,58.30
2023-02-07T02:30:13.426Z,58.67
2023-02-07T02:33:04.494Z,58.07
2023-02-07T02:35:39.108Z,56.80
2023-02-07T02:38:16.420Z,61.10
2023-02-07T02:40:55.387Z,61.10
2023-02-07T02:43:35.915Z,59.33
2023-02-07T02:46:08.740Z,60.90
2023-02-07T02:48:40.137Z,60.30
2023-02-07T02:51:08.988Z,58.60
2023-02-07T02:53:38.378Z,61.23
2023-02-07T02:56:29.606Z,59.03
2023-02-07T02:59:27.482Z,62.73
2023-02-07T03:02:05.074Z,61.60
2023-02-07T03:04:58.195Z,59.63
2023-02-07T03:07:45.359Z,59.43
2023-02-07T03:10:25.138Z,59.00
2023-02-07T03:12:59.153Z,57.80
2023-02-07T03:15:37.604Z,58.10
2023-02-07T03:18:11.259Z,59.10
2023-02-07T03:20:48.007Z,59.53
2023-02-07T03:23:18.905Z,55.00
2023-02-07T03:25:49.434Z,54.90
2023-02-07T03:28:22.795Z,52.63
2023-02-07T03:30:52.851Z,52.13
2023-02-07T03:33:22.757Z,52.87
2023-02-07T03:35:58.619Z,53.63
2023-02-07T03:38:27.506Z,49.53
2023-02-07T03:41:02.754Z,46.67
2023-02-07T03:43:34.716Z,47.53
2023-02-07T03:46:03.522Z,45.13
2023-02-07T03:48:32.246Z,45.93
2023-02-07T03:51:02.387Z,44.77
2023-02-07T03:53:31.283Z,43.67
2023-02-07T03:56:00.159Z,45.13
2023-02-07T03:58:28.918Z,43.83
2023-02-07T04:00:58.331Z,43.77
2023-02-07T04:03:27.316Z,43.77
2023-02-07T04:05:56.186Z,43.17
2023-02-07T04:08:26.295Z,42.47
2023-02-07T04:11:02.470Z,41.73
2023-02-07T04:13:31.700Z,41.47
2023-02-07T04:16:00.684Z,41.73
2023-02-07T04:18:29.552Z,42.00
2023-02-07T04:21:02.998Z,42.20
2023-02-07T04:23:33.539Z,42.23
2023-02-07T04:26:02.504Z,43.10
2023-02-07T04:28:31.304Z,42.60
2023-02-07T04:31:00.167Z,43.13
2023-02-07T04:33:29.028Z,40.73
2023-02-07T04:35:58.162Z,42.63
2023-02-07T04:38:28.441Z,41.83
2023-02-07T04:41:03.330Z,41.60
2023-02-07T04:43:32.247Z,41.37
2023-02-07T04:46:01.088Z,43.27
2023-02-07T04:48:30.337Z,42.90
2023-02-07T04:50:59.366Z,45.50
2023-02-07T04:53:28.230Z,41.93
2023-02-07T04:55:57.146Z,43.53
2023-02-07T04:58:27.645Z,42.97
2023-02-07T05:00:56.790Z,42.00
2023-02-07T05:03:25.671Z,43.40
2023-02-07T05:05:55.618Z,42.03
2023-02-07T05:08:26.194Z,40.90
2023-02-07T05:10:56.106Z,40.67
2023-02-07T05:13:26.795Z,39.23
2023-02-07T05:15:55.555Z,41.13
2023-02-07T05:18:24.843Z,40.57
2023-02-07T05:20:54.872Z,39.90
2023-02-07T05:23:23.643Z,39.70
2023-02-07T05:25:52.457Z,39.67
2023-02-07T05:28:21.357Z,37.43
2023-02-07T05:30:54.482Z,37.47
2023-02-07T05:33:22.256Z,34.50
2023-02-07T05:35:51.192Z,35.73
2023-02-07T05:38:21.292Z,35.97
2023-02-07T05:40:50.386Z,35.73
2023-02-07T05:43:19.231Z,37.67
2023-02-07T05:45:47.968Z,36.00
2023-02-07T05:48:18.097Z,34.40
2023-02-07T05:50:46.843Z,34.63
2023-02-07T05:53:15.666Z,33.77
2023-02-07T05:55:44.452Z,36.60
2023-02-07T05:58:13.277Z,44.00
2023-02-07T06:00:42.008Z,37.57
2023-02-07T06:03:10.766Z,33.47
2023-02-07T06:05:41.555Z,33.20
2023-02-07T06:08:10.834Z,33.60
2023-02-07T06:10:39.817Z,35.67
2023-02-07T06:13:08.634Z,32.30
2023-02-07T06:15:37.979Z,31.50
2023-02-07T06:18:06.979Z,33.80
2023-02-07T06:20:35.693Z,35.77
2023-02-07T06:23:05.891Z,37.97
2023-02-07T06:25:34.678Z,40.83
2023-02-07T06:28:03.482Z,37.57
2023-02-07T06:30:32.338Z,35.77
2023-02-07T06:33:01.076Z,31.77
2023-02-07T06:35:29.875Z,32.27
2023-02-07T06:37:58.585Z,31.20
2023-02-07T06:40:28.743Z,29.90
2023-02-07T06:42:57.530Z,30.07
2023-02-07T06:45:26.238Z,27.83
2023-02-07T06:47:55.007Z,28.43
2023-02-07T06:50:23.860Z,28.73
2023-02-07T06:52:53.114Z,29.00
2023-02-07T06:55:21.886Z,30.60
2023-02-07T06:57:52.226Z,30.80
2023-02-07T07:00:21.896Z,34.27
2023-02-07T07:02:50.682Z,32.53
2023-02-07T07:05:19.677Z,31.53
2023-02-07T07:07:48.504Z,32.40
2023-02-07T07:10:17.569Z,42.67
2023-02-07T07:12:47.701Z,40.60
2023-02-07T07:15:17.999Z,37.43
2023-02-07T07:17:46.714Z,34.37
2023-02-07T07:20:15.887Z,33.80
2023-02-07T07:22:44.910Z,33.60
2023-02-07T07:25:13.720Z,35.53
2023-02-07T07:27:42.538Z,38.93
2023-02-07T07:30:12.888Z,36.33
2023-02-07T07:32:43.090Z,35.57
2023-02-07T07:35:11.888Z,33.13
2023-02-07T07:37:41.848Z,35.50
2023-02-07T07:40:11.818Z,34.03
2023-02-07T07:42:40.607Z,32.90
2023-02-07T07:45:22.294Z,33.93
2023-02-07T07:47:52.566Z,31.40
2023-02-07T07:50:21.984Z,32.23
2023-02-07T07:52:50.796Z,30.93
2023-02-07T07:55:19.702Z,31.83
2023-02-07T07:57:48.414Z,32.27
2023-02-07T08:00:17.672Z,36.13
2023-02-07T08:02:46.755Z,34.23
2023-02-07T08:05:17.075Z,32.10
2023-02-07T08:07:45.860Z,31.33
2023-02-07T08:10:14.694Z,31.73
2023-02-07T08:12:44.283Z,31.70
2023-02-07T08:15:14.049Z,30.83
2023-02-07T08:17:42.879Z,29.53
2023-02-07T08:20:12.885Z,29.10
2023-02-07T08:22:43.066Z,29.20
2023-02-07T08:25:11.917Z,28.80
2023-02-07T08:27:40.887Z,28.10
2023-02-07T08:30:12.557Z,28.27
2023-02-07T08:32:41.637Z,30.17
2023-02-07T08:35:10.893Z,30.37
2023-02-07T08:37:40.170Z,29.27
2023-02-07T08:40:11.297Z,27.33
2023-02-07T08:42:40.165Z,28.73
2023-02-07T08:45:10.076Z,30.00
2023-02-07T08:47:39.132Z,31.37
2023-02-07T08:50:09.155Z,32.10
2023-02-07T08:52:37.926Z,32.13
2023-02-07T08:55:08.022Z,31.47
2023-02-07T08:57:38.650Z,33.53
2023-02-07T09:00:08.870Z,34.53
2023-02-07T09:02:37.778Z,32.40
2023-02-07T09:05:07.054Z,33.20
2023-02-07T09:07:35.810Z,31.60
2023-02-07T09:10:06.790Z,35.03
2023-02-07T09:12:37.177Z,35.63
2023-02-07T09:15:06.747Z,35.77
2023-02-07T09:17:35.707Z,32.97
2023-02-07T09:20:05.416Z,33.50
2023-02-07T09:22:54.488Z,31.90
2023-02-07T09:25:23.325Z,31.53
2023-02-07T09:27:53.464Z,30.77
2023-02-07T09:30:22.366Z,30.57
2023-02-07T09:32:52.069Z,30.70
2023-02-07T09:35:20.895Z,29.70
2023-02-07T09:37:50.285Z,30.40
2023-02-07T09:40:20.474Z,28.27
2023-02-07T09:42:57.148Z,29.00
2023-02-07T09:45:30.212Z,30.73
2023-02-07T09:48:04.382Z,28.47
2023-02-07T09:50:38.384Z,28.77
2023-02-07T09:53:15.663Z,28.93
2023-02-07T09:55:50.040Z,29.53
2023-02-07T09:58:41.090Z,28.53
2023-02-07T10:01:16.030Z,29.57
2023-02-07T10:03:52.940Z,28.13
2023-02-07T10:06:28.189Z,25.47
2023-02-07T10:09:00.526Z,26.27
2023-02-07T10:11:39.416Z,27.23
2023-02-07T10:14:21.720Z,27.67
2023-02-07T10:17:03.947Z,26.93
2023-02-07T10:19:42.509Z,27.03
2023-02-07T10:22:23.481Z,27.53
2023-02-07T10:25:18.973Z,27.43
2023-02-07T10:27:56.934Z,27.67
2023-02-07T10:30:29.038Z,28.47
2023-02-07T10:33:02.616Z,28.57
2023-02-07T10:35:37.201Z,29.50
2023-02-07T10:38:12.746Z,31.63
2023-02-07T10:40:45.730Z,29.63
2023-02-07T10:43:28.082Z,31.17
2023-02-07T10:46:06.392Z,30.90
2023-02-07T10:48:36.344Z,34.40
2023-02-07T10:51:13.199Z,33.67
2023-02-07T10:53:54.634Z,35.60
2023-02-07T10:56:27.295Z,31.53
2023-02-07T10:58:58.238Z,30.63
2023-02-07T11:01:30.922Z,30.83
2023-02-07T11:04:00.276Z,29.60
2023-02-07T11:06:32.098Z,29.30
2023-02-07T11:09:22.486Z,31.40
2023-02-07T11:11:51.846Z,34.50
2023-02-07T11:14:26.720Z,35.57
2023-02-07T11:16:58.583Z,36.80
2023-02-07T11:19:29.886Z,34.50
2023-02-07T11:22:10.284Z,37.37
2023-02-07T11:24:39.414Z,35.97
2023-02-07T11:27:15.410Z,36.30
2023-02-07T11:29:50.293Z,35.53
2023-02-07T11:32:21.921Z,37.97
2023-02-07T11:34:53.538Z,34.43
2023-02-07T11:37:28.865Z,36.77
2023-02-07T11:40:14.092Z,30.77
2023-02-07T11:42:43.012Z,33.33
2023-02-07T11:45:16.194Z,30.13
2023-02-07T11:47:48.906Z,28.47
2023-02-07T11:50:22.703Z,26.17
2023-02-07T11:52:57.560Z,26.53
2023-02-07T11:55:31.767Z,28.10
2023-02-07T11:58:09.386Z,27.20
2023-02-07T12:00:39.594Z,25.60
2023-02-07T12:03:22.444Z,24.53
2023-02-07T12:05:54.979Z,23.07
2023-02-07T12:08:25.803Z,21.60
2023-02-07T12:10:58.442Z,21.97
2023-02-07T12:13:31.327Z,20.43
2023-02-07T12:16:03.720Z,21.33
2023-02-07T12:18:38.907Z,20.83
2023-02-07T12:21:15.366Z,19.70
2023-02-07T12:23:50.284Z,19.50
2023-02-07T12:26:24.618Z,18.10
2023-02-07T12:29:13.607Z,19.20
2023-02-07T12:31:52.094Z,19.23
2023-02-07T12:34:29.338Z,19.33
2023-02-07T12:37:05.412Z,19.13
2023-02-07T12:39:44.256Z,20.57
2023-02-07T12:42:32.110Z,22.30
2023-02-07T12:45:03.665Z,22.83
2023-02-07T12:47:45.072Z,21.07
2023-02-07T12:50:28.059Z,18.70
2023-02-07T12:53:09.422Z,19.07
2023-02-07T12:55:47.983Z,16.90
2023-02-07T12:58:39.679Z,14.13
2023-02-07T13:01:16.755Z,15.13
2023-02-07T13:04:24.750Z,14.70
2023-02-07T13:07:04.910Z,17.97
2023-02-07T13:09:40.872Z,18.83
2023-02-07T13:12:15.560Z,16.50
2023-02-07T13:15:00.996Z,17.73
2023-02-07T13:17:38.083Z,16.33
2023-02-07T13:20:12.741Z,15.73
2023-02-07T13:22:48.725Z,16.93
2023-02-07T13:25:23.606Z,16.60
2023-02-07T13:27:55.906Z,16.67
2023-02-07T13:30:25.949Z,12.13
2023-02-07T13:32:55.631Z,12.47
2023-02-07T13:35:27.283Z,8.27
2023-02-07T13:38:08.528Z,9.37
2023-02-07T13:40:51.502Z,10.03
2023-02-07T13:43:26.795Z,11.73
2023-02-07T13:46:00.769Z,13.63
2023-02-07T13:48:35.582Z,14.83
2023-02-07T13:51:11.277Z,12.67
2023-02-07T13:53:53.747Z,14.20
2023-02-07T13:56:49.674Z,17.33
2023-02-07T13:59:40.413Z,17.83
2023-02-07T14:02:18.705Z,21.43
2023-02-07T14:04:51.042Z,18.13
2023-02-07T14:07:26.068Z,18.63
2023-02-07T14:09:57.775Z,18.70
2023-02-07T14:12:29.215Z,19.30
2023-02-07T14:15:38.764Z,20.33
2023-02-07T14:18:43.910Z,20.77
2023-02-07T14:21:33.293Z,22.63
2023-02-07T14:24:19.440Z,23.10
2023-02-07T14:27:07.374Z,23.53
2023-02-07T14:29:56.564Z,23.00
2023-02-07T14:32:41.693Z,21.93
2023-02-07T14:35:35.380Z,23.57
2023-02-07T14:38:13.696Z,23.23
2023-02-07T14:41:09.970Z,24.77
2023-02-07T14:43:56.794Z,27.00
2023-02-07T14:46:37.825Z,29.20
2023-02-07T14:49:16.176Z,26.20
2023-02-07T14:51:49.276Z,32.63
2023-02-07T14:54:27.060Z,28.10
2023-02-07T14:57:04.227Z,24.87
2023-02-07T14:59:37.740Z,23.10
2023-02-07T15:02:31.653Z,24.97
2023-02-07T15:05:16.579Z,25.43
2023-02-07T15:07:48.072Z,26.67
2023-02-07T15:10:18.540Z,25.00
2023-02-07T15:12:47.528Z,30.10
2023-02-07T15:15:21.755Z,28.77
2023-02-07T15:17:51.771Z,25.77
2023-02-07T15:20:24.483Z,24.00
2023-02-07T15:22:56.075Z,23.53
2023-02-07T15:25:27.884Z,26.30
2023-02-07T15:28:01.605Z,25.90
2023-02-07T15:30:31.452Z,24.73
2023-02-07T15:33:00.905Z,26.10
2023-02-07T15:35:37.331Z,26.03
2023-02-07T15:38:20.882Z,27.53
2023-02-07T15:40:50.146Z,26.17
2023-02-07T15:43:28.170Z,23.70
2023-02-07T15:46:06.586Z,23.83
2023-02-07T15:48:47.227Z,22.60
2023-02-07T15:51:18.603Z,24.60
2023-02-07T15:53:52.950Z,29.50
2023-02-07T15:56:21.913Z,29.40
2023-02-07T15:58:51.966Z,29.80
2023-02-07T16:01:26.047Z,29.97
2023-02-07T16:03:57.359Z,29.23
2023-02-07T16:06:27.765Z,29.10
2023-02-07T16:08:59.828Z,31.20
2023-02-07T16:11:37.827Z,33.77
2023-02-07T16:14:18.229Z,33.87
2023-02-07T16:16:50.827Z,32.70
2023-02-07T16:19:21.920Z,32.87
2023-02-07T16:21:54.311Z,32.53
2023-02-07T16:24:27.597Z,30.93
2023-02-07T16:26:59.237Z,34.40
2023-02-07T16:29:28.219Z,33.13
2023-02-07T16:31:57.262Z,33.37
2023-02-07T16:34:26.216Z,30.40
2023-02-07T16:36:56.922Z,32.80
2023-02-07T16:39:27.141Z,31.47
2023-02-07T16:42:02.047Z,31.80
2023-02-07T16:44:32.630Z,33.50
2023-02-07T16:47:01.444Z,32.03
2023-02-07T16:49:31.804Z,31.97
2023-02-07T16:52:00.831Z,35.13
2023-02-07T16:54:30.961Z,33.20
2023-02-07T16:57:03.814Z,33.10
2023-02-07T16:59:33.103Z,29.27
2023-02-07T17:02:01.969Z,31.73
2023-02-07T17:04:30.762Z,28.63
2023-02-07T17:06:59.502Z,28.87
2023-02-07T17:09:28.232Z,28.90
2023-02-07T17:11:58.412Z,29.17
2023-02-07T17:14:28.693Z,28.57
2023-02-07T17:16:59.680Z,28.87
2023-02-07T17:19:29.030Z,29.17
2023-02-07T17:21:57.768Z,29.77
2023-02-07T17:24:26.537Z,33.73
2023-02-07T17:26:56.481Z,33.90
2023-02-07T17:29:26.650Z,35.90
2023-02-07T17:31:55.509Z,36.43
2023-02-07T17:34:24.279Z,39.67
2023-02-07T17:36:53.151Z,40.77
2023-02-07T17:39:22.010Z,45.27
2023-02-07T17:41:50.754Z,44.50
2023-02-07T17:44:23.196Z,41.80
2023-02-07T17:46:53.326Z,41.17
2023-02-07T17:49:22.090Z,44.63
2023-02-07T17:51:51.517Z,41.43
2023-02-07T17:54:20.241Z,41.37
2023-02-07T17:56:49.016Z,45.27
2023-02-07T17:59:23.906Z,47.53
2023-02-07T18:01:54.162Z,39.73
2023-02-07T18:04:23.022Z,37.47
2023-02-07T18:06:51.799Z,39.00
2023-02-07T18:09:21.345Z,77.63
2023-02-07T18:11:50.578Z,58.17
2023-02-07T18:14:19.362Z,46.70
2023-02-07T18:16:48.237Z,39.20
2023-02-07T18:19:19.245Z,35.73
2023-02-07T18:21:48.077Z,35.77
2023-02-07T18:24:17.161Z,37.27
2023-02-07T18:26:47.219Z,38.97
2023-02-07T18:29:16.579Z,34.30
2023-02-07T18:31:45.827Z,37.00
2023-02-07T18:34:14.646Z,37.07
2023-02-07T18:36:44.752Z,36.77
2023-02-07T18:39:13.884Z,38.43
2023-02-07T18:41:42.695Z,35.47
2023-02-07T18:44:11.427Z,35.00
2023-02-07T18:46:40.287Z,34.20
2023-02-07T18:49:09.049Z,38.77
2023-02-07T18:51:38.990Z,42.50
2023-02-07T18:54:09.239Z,42.13
2023-02-07T18:56:38.274Z,40.50
2023-02-07T18:59:07.022Z,40.00
2023-02-07T19:01:36.150Z,38.97
2023-02-07T19:04:05.238Z,42.40
2023-02-07T19:06:35.503Z,40.30
2023-02-07T19:09:04.361Z,39.20
2023-02-07T19:11:34.463Z,38.73
2023-02-07T19:14:03.503Z,42.00
2023-02-07T19:16:32.303Z,41.63
2023-02-07T19:19:03.335Z,41.50
2023-02-07T19:21:32.271Z,39.13
2023-02-07T19:24:04.471Z,48.50
2023-02-07T19:26:34.888Z,38.17
2023-02-07T19:29:05.329Z,42.57
2023-02-07T19:31:34.706Z,44.93
2023-02-07T19:34:03.444Z,34.43
2023-02-07T19:36:32.356Z,32.43
2023-02-07T19:39:01.072Z,37.30
2023-02-07T19:41:30.483Z,35.40
2023-02-07T19:44:00.756Z,37.40
2023-02-07T19:46:30.217Z,49.70
2023-02-07T19:49:00.098Z,71.53
2023-02-07T19:51:31.989Z,72.27
2023-02-07T19:54:01.277Z,59.20
2023-02-07T19:56:33.369Z,50.43
2023-02-07T19:59:05.384Z,40.57
2023-02-07T20:01:37.379Z,33.17
2023-02-07T20:04:06.822Z,29.20
2023-02-07T20:06:36.267Z,32.23
2023-02-07T20:09:07.190Z,30.30
2023-02-07T20:11:36.328Z,33.03
2023-02-07T20:14:07.855Z,39.27
2023-02-07T20:16:38.766Z,37.33
2023-02-07T20:19:08.601Z,40.53
2023-02-07T20:21:38.250Z,30.27
2023-02-07T20:24:07.803Z,13.83
2023-02-07T20:26:39.589Z,13.87
2023-02-07T20:29:12.681Z,15.70
2023-02-07T20:31:42.277Z,18.90
2023-02-07T20:34:11.551Z,16.70
2023-02-07T20:36:42.170Z,14.53
2023-02-07T20:39:13.793Z,14.17
2023-02-07T20:41:43.323Z,16.70
2023-02-07T20:44:16.908Z,20.70
2023-02-07T20:46:46.688Z,20.83
2023-02-07T20:49:18.502Z,19.57
2023-02-07T20:51:48.728Z,16.47
2023-02-07T20:54:19.468Z,13.33
2023-02-07T20:56:49.013Z,11.93
2023-02-07T20:59:24.159Z,12.20
2023-02-07T21:01:53.370Z,12.97
2023-02-07T21:04:22.747Z,13.60
2023-02-07T21:06:52.727Z,12.60
2023-02-07T21:09:21.808Z,14.53
2023-02-07T21:11:52.483Z,19.90
2023-02-07T21:14:25.941Z,15.07
2023-02-07T21:16:55.648Z,13.67
2023-02-07T21:19:25.079Z,12.97
2023-02-07T21:21:55.000Z,12.27
2023-02-07T21:24:24.310Z,13.03
2023-02-07T21:26:54.412Z,12.20
2023-02-07T21:29:25.270Z,11.67
2023-02-07T21:31:54.128Z,12.07
2023-02-07T21:34:23.738Z,13.83
2023-02-07T21:36:52.597Z,14.73
2023-02-07T21:39:23.540Z,16.13
2023-02-07T21:41:52.317Z,17.10
2023-02-07T21:44:22.201Z,15.07
2023-02-07T21:46:52.396Z,16.00
2023-02-07T21:49:21.970Z,14.30
2023-02-07T21:51:53.747Z,15.00
2023-02-07T21:54:22.959Z,16.07
2023-02-07T21:56:52.194Z,17.37
2023-02-07T21:59:22.479Z,15.20
2023-02-07T22:01:52.783Z,15.77
2023-02-07T22:04:21.756Z,14.90
2023-02-07T22:06:50.609Z,15.00
2023-02-07T22:09:21.995Z,16.63
2023-02-07T22:11:51.304Z,15.33
2023-02-07T22:14:20.124Z,17.57
2023-02-07T22:16:54.066Z,18.33
2023-02-07T22:19:23.491Z,17.93
2023-02-07T22:21:52.573Z,16.67
2023-02-07T22:24:21.708Z,18.07
2023-02-07T22:26:50.486Z,17.37
2023-02-07T22:29:19.245Z,19.30
2023-02-07T22:31:48.068Z,17.90
2023-02-07T22:34:19.037Z,17.27
2023-02-07T22:36:47.917Z,16.77
2023-02-07T22:39:18.447Z,15.90
2023-02-07T22:41:48.092Z,16.93
2023-02-07T22:44:16.863Z,16.40
2023-02-07T22:46:45.603Z,17.00
2023-02-07T22:49:14.425Z,16.53
2023-02-07T22:51:46.168Z,16.83
2023-02-07T22:54:18.410Z,17.30
2023-02-07T22:56:47.415Z,16.40
2023-02-07T22:59:16.292Z,17.23
2023-02-07T23:01:46.023Z,17.33
2023-02-07T23:04:17.438Z,16.43
2023-02-07T23:06:48.105Z,14.07
2023-02-07T23:09:17.273Z,14.87
2023-02-07T23:11:46.079Z,15.07
2023-02-07T23:14:16.418Z,14.90
2023-02-07T23:16:45.191Z,14.83
2023-02-07T23:19:16.668Z,15.10
2023-02-07T23:21:47.199Z,14.63
2023-02-07T23:24:16.114Z,15.07
2023-02-07T23:26:44.841Z,13.70
2023-02-07T23:29:13.644Z,13.60
2023-02-07T23:31:42.459Z,14.03
2023-02-07T23:34:11.775Z,13.33
2023-02-07T23:36:40.879Z,11.47
2023-02-07T23:39:11.474Z,11.17
2023-02-07T23:41:40.271Z,11.00
2023-02-07T23:44:09.319Z,11.50
2023-02-07T23:46:38.512Z,12.00
2023-02-07T23:49:07.561Z,10.33
2023-02-07T23:51:36.382Z,10.70
2023-02-07T23:54:05.390Z,10.43
2023-02-07T23:56:35.675Z,9.50
2023-02-07T23:59:04.490Z,10.63
